Terminal Aerodrome Forecast
Issued by NWS

Home | Current Version | Previous Version | Text Only | Print | Product List | Glossary On
Versions: 1 2 3 4 5 6 7 8 9 10 11 12
000
FTUS44 KLUB 301700
TAFCDS
TAF
KCDS 301723Z 3018/0118 19014KT P6SM FEW090
     FM302100 19016G25KT P6SM SCT050
      TEMPO 3023/0103 5SM -TSRA BKN040CB
     FM010500 16011KT P6SM BKN070=

USA.gov is the U.S. government's official web portal to all federal, state and local government web resources and services.